createdAt,value
2024-02-06T00:04:43.391Z,14.87
2024-02-06T00:09:46.261Z,15.00
2024-02-06T00:14:50.149Z,16.17
2024-02-06T00:19:52.751Z,17.43
2024-02-06T00:24:55.352Z,17.85
2024-02-06T00:29:59.239Z,14.90
2024-02-06T00:35:01.910Z,18.23
2024-02-06T00:40:05.381Z,17.43
2024-02-06T00:45:10.351Z,17.58
2024-02-06T00:50:13.336Z,16.55
2024-02-06T00:55:16.554Z,17.97
2024-02-06T01:00:20.859Z,18.75
2024-02-06T01:05:23.590Z,15.13
2024-02-06T01:10:26.234Z,17.23
2024-02-06T01:15:30.196Z,19.20
2024-02-06T01:20:32.751Z,20.05
2024-02-06T01:25:35.791Z,17.73
2024-02-06T01:30:39.826Z,16.63
2024-02-06T01:35:42.419Z,17.67
2024-02-06T01:40:45.214Z,19.00
2024-02-06T01:45:52.303Z,17.23
2024-02-06T01:50:55.476Z,17.77
2024-02-06T01:55:58.232Z,17.08
2024-02-06T02:01:03.050Z,19.90
2024-02-06T02:06:06.456Z,18.90
2024-02-06T02:11:09.562Z,23.83
2024-02-06T02:16:13.635Z,22.43
2024-02-06T02:21:17.775Z,21.23
2024-02-06T02:26:20.416Z,20.83
2024-02-06T02:31:24.609Z,20.15
2024-02-06T02:36:28.492Z,19.97
2024-02-06T02:41:31.031Z,20.90
2024-02-06T02:46:33.663Z,22.02
2024-02-06T02:51:37.613Z,22.33
2024-02-06T02:56:40.150Z,22.55
2024-02-06T03:01:42.919Z,20.55
2024-02-06T03:06:46.912Z,24.30
2024-02-06T03:11:49.485Z,26.13
2024-02-06T03:16:52.062Z,21.90
2024-02-06T03:21:56.582Z,18.73
2024-02-06T03:26:59.307Z,18.17
2024-02-06T03:32:01.874Z,18.15
2024-02-06T03:37:05.918Z,19.00
2024-02-06T03:42:08.517Z,17.43
2024-02-06T03:47:11.054Z,20.88
2024-02-06T03:52:15.720Z,22.30
2024-02-06T03:57:21.379Z,22.03
2024-02-06T04:02:24.382Z,21.93
2024-02-06T04:07:28.380Z,19.77
2024-02-06T04:12:30.988Z,16.25
2024-02-06T04:17:33.533Z,17.50
2024-02-06T04:22:37.553Z,16.83
2024-02-06T04:27:40.131Z,21.77
2024-02-06T04:32:42.735Z,21.93
2024-02-06T04:37:46.765Z,20.75
2024-02-06T04:42:49.354Z,17.08
2024-02-06T04:47:52.212Z,21.30
2024-02-06T04:53:01.048Z,20.07
2024-02-06T04:58:03.873Z,19.05
2024-02-06T05:03:07.482Z,18.23
2024-02-06T05:08:11.459Z,16.97
2024-02-06T05:13:14.097Z,16.75
2024-02-06T05:18:16.725Z,20.05
2024-02-06T05:23:20.701Z,21.50
2024-02-06T05:28:23.279Z,20.40
2024-02-06T05:33:25.960Z,17.52
2024-02-06T05:38:29.955Z,19.30
2024-02-06T05:43:32.535Z,14.53
2024-02-06T05:48:36.660Z,24.10
2024-02-06T05:53:41.258Z,21.77
2024-02-06T05:58:43.929Z,15.87
2024-02-06T06:03:48.123Z,21.35
2024-02-06T06:08:52.005Z,18.95
2024-02-06T06:13:54.811Z,20.20
2024-02-06T06:18:57.531Z,20.08
2024-02-06T06:24:01.522Z,17.63
2024-02-06T06:29:04.675Z,20.20
2024-02-06T06:34:07.371Z,17.53
2024-02-06T06:39:12.417Z,17.60
2024-02-06T06:44:15.121Z,18.30
2024-02-06T06:49:17.747Z,17.07
2024-02-06T06:54:21.655Z,18.40
2024-02-06T06:59:24.222Z,19.73
2024-02-06T07:04:27.586Z,16.97
2024-02-06T07:09:31.739Z,23.17
2024-02-06T07:14:36.274Z,20.73
2024-02-06T07:19:38.949Z,18.47
2024-02-06T07:24:42.950Z,16.80
2024-02-06T07:29:45.524Z,15.23
2024-02-06T07:34:48.137Z,20.15
2024-02-06T07:39:52.075Z,18.90
2024-02-06T07:44:54.622Z,17.20
2024-02-06T07:49:57.177Z,14.13
2024-02-06T07:55:01.136Z,20.17
2024-02-06T08:00:05.976Z,19.77
2024-02-06T08:05:09.112Z,18.38
2024-02-06T08:10:13.637Z,19.60
2024-02-06T08:15:16.702Z,16.13
2024-02-06T08:20:21.236Z,18.55
2024-02-06T08:25:27.114Z,15.18
2024-02-06T08:30:29.857Z,18.93
2024-02-06T08:35:32.514Z,23.98
2024-02-06T08:40:36.454Z,17.50
2024-02-06T08:45:39.306Z,23.60
2024-02-06T08:50:44.192Z,19.27
2024-02-06T08:55:49.158Z,17.05
2024-02-06T09:00:52.099Z,13.50
2024-02-06T09:05:54.906Z,15.50
2024-02-06T09:10:58.892Z,12.93
2024-02-06T09:16:02.886Z,14.25
2024-02-06T09:21:06.917Z,11.97
2024-02-06T09:26:12.684Z,9.77
2024-02-06T09:31:15.330Z,11.45
2024-02-06T09:36:18.673Z,11.10
2024-02-06T09:41:23.690Z,13.25
2024-02-06T09:46:26.606Z,10.48
2024-02-06T09:51:33.550Z,10.73
2024-02-06T09:56:38.888Z,10.40
2024-02-06T10:01:44.996Z,12.65
2024-02-06T10:06:50.056Z,11.50
2024-02-06T10:11:56.420Z,9.77
2024-02-06T10:16:59.272Z,10.55
2024-02-06T10:22:02.962Z,9.30
2024-02-06T10:27:07.202Z,9.03
2024-02-06T10:32:17.058Z,8.57
2024-02-06T10:37:20.755Z,10.32
2024-02-06T10:42:56.765Z,8.90
2024-02-06T10:47:56.842Z,10.10
2024-02-06T10:53:00.079Z,9.43
2024-02-06T10:58:08.144Z,10.07
2024-02-06T11:03:12.027Z,9.77
2024-02-06T11:08:16.209Z,9.77
2024-02-06T11:13:27.125Z,7.45
2024-02-06T11:18:34.172Z,6.50
2024-02-06T11:23:37.493Z,6.85
2024-02-06T11:28:41.881Z,8.82
2024-02-06T11:33:44.620Z,6.37
2024-02-06T11:38:47.249Z,8.83
2024-02-06T11:43:52.465Z,6.38
2024-02-06T11:48:55.230Z,7.85
2024-02-06T11:53:57.847Z,6.23
2024-02-06T11:59:01.738Z,6.78
2024-02-06T12:04:05.568Z,5.82
2024-02-06T12:09:10.857Z,5.07
2024-02-06T12:14:17.234Z,5.38
2024-02-06T12:19:19.941Z,4.40
2024-02-06T12:24:23.266Z,5.40
2024-02-06T12:29:27.267Z,5.30
2024-02-06T12:34:29.953Z,5.95
2024-02-06T12:39:32.804Z,7.60
2024-02-06T12:44:45.600Z,5.50
2024-02-06T12:49:52.758Z,5.25
2024-02-06T12:54:55.582Z,5.32
2024-02-06T12:59:59.487Z,6.97
2024-02-06T13:05:09.365Z,7.18
2024-02-06T13:10:15.595Z,8.20
2024-02-06T13:15:20.551Z,9.57
2024-02-06T13:20:23.252Z,7.27
2024-02-06T13:25:27.817Z,9.85
2024-02-06T13:30:35.764Z,8.95
2024-02-06T13:35:39.302Z,8.97
2024-02-06T13:40:41.947Z,9.90
2024-02-06T13:45:46.172Z,12.73
2024-02-06T13:50:49.247Z,10.00
2024-02-06T13:55:52.036Z,9.95
2024-02-06T14:00:56.166Z,9.18
2024-02-06T14:05:58.761Z,8.67
2024-02-06T14:11:01.663Z,9.37
2024-02-06T14:16:06.056Z,11.63
2024-02-06T14:21:08.618Z,11.07
2024-02-06T14:26:11.228Z,10.07
2024-02-06T14:31:15.114Z,11.15
2024-02-06T14:36:18.248Z,9.55
2024-02-06T14:41:21.296Z,8.90
2024-02-06T14:46:25.369Z,9.88
2024-02-06T14:51:28.718Z,8.48
2024-02-06T14:56:31.310Z,8.43
2024-02-06T15:01:35.546Z,12.00
2024-02-06T15:06:39.902Z,10.93
2024-02-06T15:11:43.258Z,6.70
2024-02-06T15:16:47.253Z,8.33
2024-02-06T15:21:51.633Z,20.30
2024-02-06T15:26:57.060Z,35.30
2024-02-06T15:32:01.414Z,10.73
2024-02-06T15:37:05.778Z,7.10
2024-02-06T15:42:08.497Z,21.63
2024-02-06T15:47:12.414Z,26.13
2024-02-06T15:52:17.195Z,22.33
2024-02-06T15:57:22.439Z,54.53
2024-02-06T16:02:27.399Z,37.47
2024-02-06T16:07:30.843Z,31.37
2024-02-06T16:12:41.625Z,45.92
2024-02-06T16:17:53.515Z,56.60
2024-02-06T16:22:56.050Z,46.87
2024-02-06T16:27:58.650Z,29.20
2024-02-06T16:33:02.648Z,42.92
2024-02-06T16:38:05.677Z,22.70
2024-02-06T16:43:08.348Z,34.77
2024-02-06T16:48:12.421Z,48.08
2024-02-06T16:53:15.001Z,38.78
2024-02-06T16:58:17.575Z,11.70
2024-02-06T17:03:21.579Z,61.25
2024-02-06T17:08:24.155Z,17.25
2024-02-06T17:13:26.824Z,56.03
2024-02-06T17:18:30.779Z,39.13
2024-02-06T17:23:33.320Z,17.70
2024-02-06T17:28:36.372Z,39.47
2024-02-06T17:33:40.384Z,33.27
2024-02-06T17:38:44.552Z,29.65
2024-02-06T17:43:47.488Z,37.40
2024-02-06T17:48:51.464Z,74.57
2024-02-06T17:53:54.035Z,38.83
2024-02-06T17:58:57.057Z,14.20
2024-02-06T18:04:01.172Z,8.70
2024-02-06T18:09:03.909Z,13.35
2024-02-06T18:14:06.543Z,9.48
2024-02-06T18:19:10.790Z,11.93
2024-02-06T18:24:13.632Z,9.10
2024-02-06T18:29:16.198Z,7.15
2024-02-06T18:34:21.287Z,8.25
2024-02-06T18:39:24.288Z,6.20
2024-02-06T18:44:26.836Z,7.95
2024-02-06T18:49:30.775Z,6.93
2024-02-06T18:54:35.179Z,7.30
2024-02-06T18:59:37.996Z,8.75
2024-02-06T19:04:42.196Z,5.35
2024-02-06T19:09:45.114Z,6.30
2024-02-06T19:14:47.906Z,6.37
2024-02-06T19:19:52.027Z,6.93
2024-02-06T19:24:54.762Z,5.22
2024-02-06T19:29:57.339Z,5.70
2024-02-06T19:35:06.314Z,7.97
2024-02-06T19:40:12.966Z,5.40
2024-02-06T19:45:15.973Z,5.50
2024-02-06T19:50:21.033Z,5.90
2024-02-06T19:55:23.923Z,4.53
2024-02-06T20:00:26.601Z,7.00
2024-02-06T20:05:30.632Z,3.40
2024-02-06T20:10:34.300Z,2.25
2024-02-06T20:15:39.512Z,2.60
2024-02-06T20:20:43.633Z,2.17
2024-02-06T20:25:48.282Z,2.75
2024-02-06T20:30:51.731Z,2.30
2024-02-06T20:35:55.582Z,3.47
2024-02-06T20:40:59.527Z,2.45
2024-02-06T20:46:02.484Z,4.13
2024-02-06T20:51:06.763Z,4.53
2024-02-06T20:56:09.300Z,2.17
2024-02-06T21:01:13.535Z,3.60
2024-02-06T21:06:17.811Z,5.28
2024-02-06T21:11:20.364Z,3.03
2024-02-06T21:16:22.936Z,2.85
2024-02-06T21:21:27.401Z,6.50
2024-02-06T21:26:29.925Z,3.30
2024-02-06T21:31:33.100Z,3.80
2024-02-06T21:36:41.057Z,6.65
2024-02-06T21:41:46.888Z,5.17
2024-02-06T21:46:49.790Z,6.10
2024-02-06T21:51:53.814Z,7.65
2024-02-06T21:56:56.412Z,5.03
2024-02-06T22:01:59.339Z,3.23
2024-02-06T22:07:03.299Z,7.80
2024-02-06T22:12:06.850Z,5.65
2024-02-06T22:17:09.679Z,5.83
2024-02-06T22:22:13.689Z,7.20
2024-02-06T22:27:17.277Z,4.50
2024-02-06T22:32:19.850Z,7.83
2024-02-06T22:37:23.998Z,7.43
2024-02-06T22:42:26.577Z,5.60
2024-02-06T22:47:29.169Z,8.93
2024-02-06T22:52:33.136Z,9.87
2024-02-06T22:57:35.673Z,8.02
2024-02-06T23:02:38.209Z,9.60
2024-02-06T23:07:42.151Z,6.70
2024-02-06T23:12:44.743Z,5.72
2024-02-06T23:17:48.256Z,5.05
2024-02-06T23:22:52.796Z,8.53
2024-02-06T23:27:55.337Z,8.20
2024-02-06T23:32:57.922Z,10.20
2024-02-06T23:38:02.435Z,11.38
2024-02-06T23:43:05.732Z,8.43
2024-02-06T23:48:09.492Z,8.82
2024-02-06T23:53:13.925Z,8.05
2024-02-06T23:58:16.529Z,10.30
